Time;durP1;ratioP1;P1;durP2;ratioP2;P2;SDS_P1;SDS_P2;PMS_P1;PMS_P2;Temp;Humidity;BMP_temperature;BMP_pressure;BME280_temperature;BME280_humidity;BME280_pressure;Samples;Min_cycle;Max_cycle;Signal;HPM_P1;HPM_P2
2023/08/13 00:00:19;;;;;;;11.65;4.85;;;;;;;;;;4952330;29;20019;-75
2023/08/13 00:02:44;;;;;;;9.80;4.78;;;;;;;;;;4936874;29;20039;-75
2023/08/13 00:05:10;;;;;;;12.38;6.45;;;;;;;;;;4936313;29;20027;-75
2023/08/13 00:07:36;;;;;;;12.85;5.50;;;;;;;;;;4936501;29;20031;-75
2023/08/13 00:10:02;;;;;;;9.40;5.05;;;;;;;;;;4935481;29;20035;-75
2023/08/13 00:12:27;;;;;;;12.75;5.20;;;;;;;;;;4919652;29;20035;-75
2023/08/13 00:14:52;;;;;;;7.57;3.97;;;;;;;;;;4935282;29;20027;-75
2023/08/13 00:17:17;;;;;;;25.08;7.30;;;;;;;;;;4936064;29;20035;-75
2023/08/13 00:19:43;;;;;;;9.82;4.65;;;;;;;;;;4936920;29;20103;-75
2023/08/13 00:22:08;;;;;;;11.05;4.90;;;;;;;;;;4920091;29;20024;-75
2023/08/13 00:24:33;;;;;;;15.05;5.35;;;;;;;;;;4935653;29;20402;-75
2023/08/13 00:26:58;;;;;;;12.18;5.20;;;;;;;;;;4936498;29;20027;-75
2023/08/13 00:29:24;;;;;;;9.00;4.68;;;;;;;;;;4935668;29;20099;-75
2023/08/13 00:31:49;;;;;;;10.98;4.85;;;;;;;;;;4936254;29;20501;-75
2023/08/13 00:34:15;;;;;;;7.82;4.28;;;;;;;;;;4936951;29;20027;-75
2023/08/13 00:36:40;;;;;;;10.80;4.85;;;;;;;;;;4935700;29;20092;-75
2023/08/13 00:39:05;;;;;;;8.65;4.40;;;;;;;;;;4935735;29;20079;-75
2023/08/13 00:41:30;;;;;;;9.00;4.03;;;;;;;;;;4936522;29;20043;-75
2023/08/13 00:43:56;;;;;;;8.80;3.42;;;;;;;;;;4935560;29;20552;-75
2023/08/13 00:46:21;;;;;;;8.80;5.40;;;;;;;;;;4935781;29;20024;-75
2023/08/13 00:48:47;;;;;;;10.40;4.97;;;;;;;;;;4935517;29;20030;-75
2023/08/13 00:51:14;;;;;;;14.75;5.03;;;;;;;;;;4935558;29;20036;-75
2023/08/13 00:53:48;;;;;;;14.13;5.85;;;;;;;;;;4934989;29;20027;-75
2023/08/13 00:56:17;;;;;;;32.67;8.20;;;;;;;;;;4920251;29;20122;-75
2023/08/13 00:58:43;;;;;;;17.27;6.85;;;;;;;;;;4935552;29;20031;-75
2023/08/13 01:01:09;;;;;;;23.58;7.18;;;;;;;;;;4935912;29;20486;-74
2023/08/13 01:03:36;;;;;;;9.73;5.40;;;;;;;;;;4936495;29;20127;-75
2023/08/13 01:06:09;;;;;;;14.10;5.25;;;;;;;;;;4936372;29;20031;-75
2023/08/13 01:09:00;;;;;;;11.68;5.35;;;;;;;;;;4934664;29;20549;-75
2023/08/13 01:12:04;;;;;;;13.45;5.35;;;;;;;;;;4935383;29;20028;-75
2023/08/13 01:14:54;;;;;;;14.95;6.57;;;;;;;;;;4936030;29;20486;-75
2023/08/13 01:17:22;;;;;;;20.83;7.47;;;;;;;;;;4935249;29;20421;-75
2023/08/13 01:19:47;;;;;;;12.73;5.80;;;;;;;;;;4935252;29;20024;-75
2023/08/13 01:22:12;;;;;;;17.90;7.28;;;;;;;;;;4919154;29;20027;-75
2023/08/13 01:24:38;;;;;;;18.30;7.40;;;;;;;;;;4936213;29;20086;-75
2023/08/13 01:27:33;;;;;;;16.88;7.18;;;;;;;;;;4936372;29;20036;-75
2023/08/13 01:30:08;;;;;;;18.13;7.18;;;;;;;;;;4935762;29;20494;-75
2023/08/13 01:32:50;;;;;;;18.95;7.63;;;;;;;;;;4936160;29;20168;-74
2023/08/13 01:35:17;;;;;;;17.30;6.60;;;;;;;;;;4950999;29;20498;-74
2023/08/13 01:37:43;;;;;;;12.35;5.00;;;;;;;;;;4919313;29;20375;-74
2023/08/13 01:40:09;;;;;;;15.38;7.28;;;;;;;;;;4939292;29;20035;-74
2023/08/13 01:42:34;;;;;;;9.88;4.88;;;;;;;;;;4939875;29;20028;-74
2023/08/13 01:44:59;;;;;;;15.70;7.10;;;;;;;;;;4940639;29;20023;-74
2023/08/13 01:47:24;;;;;;;10.52;5.70;;;;;;;;;;4939416;29;20034;-75
2023/08/13 01:49:50;;;;;;;12.38;6.22;;;;;;;;;;4940216;29;20027;-74
2023/08/13 01:52:15;;;;;;;11.80;6.00;;;;;;;;;;4938114;29;20059;-74
2023/08/13 01:54:40;;;;;;;19.60;8.13;;;;;;;;;;4939812;29;20036;-74
2023/08/13 01:57:06;;;;;;;19.92;7.93;;;;;;;;;;4954869;29;20031;-74
2023/08/13 01:59:31;;;;;;;22.80;8.15;;;;;;;;;;4939244;29;20024;-74
2023/08/13 02:01:56;;;;;;;25.25;9.00;;;;;;;;;;4938443;29;20035;-74
2023/08/13 02:04:21;;;;;;;28.38;9.57;;;;;;;;;;4938404;29;20063;-74
2023/08/13 02:06:47;;;;;;;29.92;10.80;;;;;;;;;;4938403;29;20030;-74
2023/08/13 02:09:12;;;;;;;24.40;10.73;;;;;;;;;;4937925;29;20512;-74
2023/08/13 02:11:37;;;;;;;24.85;8.35;;;;;;;;;;4939914;29;20024;-74
2023/08/13 02:14:03;;;;;;;23.38;8.93;;;;;;;;;;4953909;23;20441;-74
2023/08/13 02:16:28;;;;;;;23.10;10.20;;;;;;;;;;4958674;28;20078;-74
2023/08/13 02:18:53;;;;;;;23.38;7.97;;;;;;;;;;4958230;28;20034;-74
2023/08/13 02:21:19;;;;;;;31.90;9.55;;;;;;;;;;4958656;28;20106;-74
2023/08/13 02:23:44;;;;;;;19.73;9.23;;;;;;;;;;4957017;29;20477;-74
2023/08/13 02:26:10;;;;;;;22.58;8.18;;;;;;;;;;4958414;28;20031;-74
2023/08/13 02:28:35;;;;;;;29.20;8.02;;;;;;;;;;4972780;28;20051;-74
2023/08/13 02:31:00;;;;;;;32.45;9.13;;;;;;;;;;4957449;29;20039;-74
2023/08/13 02:33:26;;;;;;;30.40;10.63;;;;;;;;;;4958240;28;20038;-74
2023/08/13 02:35:51;;;;;;;24.77;8.95;;;;;;;;;;4941110;29;20122;-74
2023/08/13 02:38:16;;;;;;;29.05;9.05;;;;;;;;;;4956471;29;20051;-74
2023/08/13 02:40:41;;;;;;;19.88;8.05;;;;;;;;;;4956873;29;20031;-74
2023/08/13 02:43:07;;;;;;;23.63;8.55;;;;;;;;;;4973413;28;20027;-75
2023/08/13 02:45:32;;;;;;;24.45;8.23;;;;;;;;;;4958072;28;20397;-74
2023/08/13 02:47:57;;;;;;;22.50;8.57;;;;;;;;;;4973211;28;20117;-74
2023/08/13 02:50:23;;;;;;;27.15;8.45;;;;;;;;;;4954938;28;20085;-74
2023/08/13 02:52:48;;;;;;;17.52;7.57;;;;;;;;;;4958098;28;20397;-74
2023/08/13 02:55:13;;;;;;;22.05;9.50;;;;;;;;;;4957867;28;20031;-74
2023/08/13 02:57:39;;;;;;;16.48;8.20;;;;;;;;;;4957831;28;20118;-74
2023/08/13 03:00:05;;;;;;;20.20;7.88;;;;;;;;;;4972733;28;20023;-74
2023/08/13 03:02:30;;;;;;;22.65;7.25;;;;;;;;;;4972067;28;20468;-74
2023/08/13 03:04:56;;;;;;;24.50;8.93;;;;;;;;;;4958049;28;20171;-74
2023/08/13 03:07:22;;;;;;;23.38;7.00;;;;;;;;;;4972847;28;20027;-74
2023/08/13 03:09:47;;;;;;;17.70;7.00;;;;;;;;;;4956275;29;20421;-74
2023/08/13 03:12:12;;;;;;;21.80;7.47;;;;;;;;;;4957540;28;20493;-74
2023/08/13 03:14:38;;;;;;;19.92;8.05;;;;;;;;;;4957514;28;20034;-74
2023/08/13 03:17:03;;;;;;;17.60;9.10;;;;;;;;;;4955746;29;20110;-74
2023/08/13 03:19:28;;;;;;;19.02;7.13;;;;;;;;;;4972680;28;20074;-74
2023/08/13 03:21:53;;;;;;;18.38;7.22;;;;;;;;;;4957404;28;20031;-74
2023/08/13 03:24:19;;;;;;;23.38;7.35;;;;;;;;;;4957611;28;20023;-74
2023/08/13 03:26:44;;;;;;;17.77;7.53;;;;;;;;;;4957353;28;20027;-74
2023/08/13 03:29:09;;;;;;;15.90;7.18;;;;;;;;;;4955465;29;20114;-74
2023/08/13 03:31:35;;;;;;;24.52;6.45;;;;;;;;;;4969150;28;20122;-74
2023/08/13 03:34:00;;;;;;;18.20;6.07;;;;;;;;;;4955987;29;20019;-74
2023/08/13 03:36:25;;;;;;;19.80;7.45;;;;;;;;;;4955504;29;20053;-74
2023/08/13 03:38:50;;;;;;;15.63;6.50;;;;;;;;;;4957045;28;20501;-74
2023/08/13 03:41:16;;;;;;;25.55;7.70;;;;;;;;;;4955863;29;20027;-74
2023/08/13 03:43:41;;;;;;;17.35;6.15;;;;;;;;;;4955392;29;20031;-74
2023/08/13 03:46:06;;;;;;;15.05;6.82;;;;;;;;;;4956153;28;20055;-74
2023/08/13 03:48:32;;;;;;;26.25;6.22;;;;;;;;;;4956783;28;20110;-74
2023/08/13 03:50:57;;;;;;;20.55;5.88;;;;;;;;;;4956794;28;20038;-74
2023/08/13 03:53:24;;;;;;;19.17;5.82;;;;;;;;;;4956494;28;20097;-74
2023/08/13 03:55:50;;;;;;;21.08;6.60;;;;;;;;;;4956299;28;20545;-74
2023/08/13 03:58:15;;;;;;;24.98;7.20;;;;;;;;;;4955663;29;20077;-74
2023/08/13 04:00:41;;;;;;;18.98;5.80;;;;;;;;;;4955037;28;20027;-75
2023/08/13 04:03:08;;;;;;;23.73;5.28;;;;;;;;;;4956576;28;20394;-74
2023/08/13 04:05:33;;;;;;;20.40;6.60;;;;;;;;;;4956491;28;20106;-74
2023/08/13 04:07:59;;;;;;;17.42;5.30;;;;;;;;;;4955910;28;20123;-74
2023/08/13 04:10:24;;;;;;;17.17;5.00;;;;;;;;;;4956716;28;20038;-74
2023/08/13 04:12:49;;;;;;;18.80;5.25;;;;;;;;;;4971574;23;20566;-74
2023/08/13 04:15:15;;;;;;;14.05;3.97;;;;;;;;;;4993021;28;20409;-74
2023/08/13 04:17:40;;;;;;;20.42;8.15;;;;;;;;;;4993740;28;20083;-74
2023/08/13 04:20:06;;;;;;;21.73;5.97;;;;;;;;;;4993713;28;20048;-74
2023/08/13 04:22:32;;;;;;;20.52;6.93;;;;;;;;;;5009010;28;20037;-74
2023/08/13 04:24:58;;;;;;;17.40;5.05;;;;;;;;;;4977378;28;20037;-74
2023/08/13 04:27:23;;;;;;;24.63;5.30;;;;;;;;;;4976442;28;20468;-74
2023/08/13 04:29:48;;;;;;;23.30;5.93;;;;;;;;;;4977657;28;20057;-74
2023/08/13 04:32:14;;;;;;;21.88;5.85;;;;;;;;;;4993607;28;20057;-74
2023/08/13 04:34:39;;;;;;;21.33;6.00;;;;;;;;;;4993718;28;20026;-74
2023/08/13 04:37:04;;;;;;;15.23;5.22;;;;;;;;;;4994601;28;20033;-75
2023/08/13 04:39:30;;;;;;;17.55;6.05;;;;;;;;;;5009736;28;20527;-74
2023/08/13 04:42:02;;;;;;;19.30;4.70;;;;;;;;;;4994040;28;20081;-74
2023/08/13 04:44:27;;;;;;;17.58;5.78;;;;;;;;;;4993689;28;20033;-74
2023/08/13 04:46:53;;;;;;;15.63;5.30;;;;;;;;;;5008933;28;20022;-74
2023/08/13 04:49:18;;;;;;;19.88;6.45;;;;;;;;;;4994134;28;20549;-74
2023/08/13 04:51:44;;;;;;;22.75;5.30;;;;;;;;;;4994305;28;20022;-74
2023/08/13 04:54:09;;;;;;;19.13;4.80;;;;;;;;;;4994097;28;20100;-74
2023/08/13 04:56:34;;;;;;;16.27;5.15;;;;;;;;;;4992181;28;20038;-74
2023/08/13 04:58:59;;;;;;;19.52;4.90;;;;;;;;;;4993884;28;20022;-74
2023/08/13 05:01:25;;;;;;;20.00;5.13;;;;;;;;;;4993192;28;20488;-74
2023/08/13 05:03:50;;;;;;;14.07;4.75;;;;;;;;;;5008945;28;20023;-74
2023/08/13 05:06:15;;;;;;;15.15;4.72;;;;;;;;;;4993327;28;20104;-74
2023/08/13 05:08:41;;;;;;;18.35;4.90;;;;;;;;;;4992845;28;20495;-74
2023/08/13 05:11:06;;;;;;;17.55;4.53;;;;;;;;;;4993697;28;20030;-74
2023/08/13 05:13:31;;;;;;;8.32;4.43;;;;;;;;;;4992753;28;20504;-74
2023/08/13 05:15:57;;;;;;;17.88;5.95;;;;;;;;;;5008776;28;20100;-74
2023/08/13 05:18:22;;;;;;;21.92;4.68;;;;;;;;;;4993890;28;20022;-74
2023/08/13 05:20:47;;;;;;;16.00;5.43;;;;;;;;;;5008487;28;20141;-74
2023/08/13 05:23:12;;;;;;;21.75;5.20;;;;;;;;;;4992612;28;20019;-74
2023/08/13 05:25:38;;;;;;;18.10;5.10;;;;;;;;;;5008888;28;20109;-74
2023/08/13 05:28:05;;;;;;;17.70;4.93;;;;;;;;;;4992300;28;20026;-74
2023/08/13 05:30:32;;;;;;;22.20;6.72;;;;;;;;;;5008825;28;20027;-75
2023/08/13 05:32:57;;;;;;;25.38;6.55;;;;;;;;;;4993687;28;20034;-75
2023/08/13 05:35:26;;;;;;;15.48;4.80;;;;;;;;;;4991503;28;20089;-75
2023/08/13 05:37:51;;;;;;;15.13;4.60;;;;;;;;;;4992535;28;20059;-75
2023/08/13 05:40:16;;;;;;;13.77;4.97;;;;;;;;;;4990663;28;20062;-74
2023/08/13 05:42:41;;;;;;;20.85;4.82;;;;;;;;;;4993793;28;20488;-75
2023/08/13 05:45:07;;;;;;;17.02;3.95;;;;;;;;;;5008080;28;20391;-75
2023/08/13 05:47:32;;;;;;;12.50;4.85;;;;;;;;;;5002922;28;20022;-75
2023/08/13 05:49:58;;;;;;;15.13;4.45;;;;;;;;;;4993684;28;20029;-74
2023/08/13 05:52:24;;;;;;;15.77;4.20;;;;;;;;;;4998081;28;20057;-74
2023/08/13 05:54:49;;;;;;;16.02;4.30;;;;;;;;;;4992855;28;20034;-75
2023/08/13 05:57:15;;;;;;;21.95;5.53;;;;;;;;;;4992605;28;20092;-74
2023/08/13 05:59:41;;;;;;;15.80;6.70;;;;;;;;;;5008931;28;20068;-75
2023/08/13 06:02:07;;;;;;;13.05;4.45;;;;;;;;;;5008371;28;20575;-75
2023/08/13 06:04:35;;;;;;;12.38;4.85;;;;;;;;;;4993337;28;20055;-75
2023/08/13 06:07:01;;;;;;;17.05;4.20;;;;;;;;;;4992277;28;20030;-75
2023/08/13 06:09:26;;;;;;;14.73;4.93;;;;;;;;;;4992681;28;20022;-74
2023/08/13 06:11:52;;;;;;;14.40;4.80;;;;;;;;;;4993499;28;20485;-75
2023/08/13 06:14:17;;;;;;;14.88;5.13;;;;;;;;;;4992911;28;20022;-75
2023/08/13 06:16:43;;;;;;;19.50;4.90;;;;;;;;;;4975705;28;20030;-75
2023/08/13 06:19:08;;;;;;;10.65;4.30;;;;;;;;;;4993410;28;20400;-75
2023/08/13 06:21:33;;;;;;;21.15;4.45;;;;;;;;;;4991373;28;20026;-75
2023/08/13 06:23:58;;;;;;;16.40;4.30;;;;;;;;;;4994131;28;20026;-75
2023/08/13 06:26:24;;;;;;;11.15;4.40;;;;;;;;;;4996620;28;20037;-74
2023/08/13 06:28:49;;;;;;;11.48;4.38;;;;;;;;;;4995154;28;20385;-75
2023/08/13 06:31:14;;;;;;;15.98;4.75;;;;;;;;;;4996795;28;20026;-75
2023/08/13 06:33:40;;;;;;;12.88;4.50;;;;;;;;;;4995309;28;20481;-75
2023/08/13 06:36:05;;;;;;;16.42;4.78;;;;;;;;;;5011702;28;20022;-75
2023/08/13 06:38:32;;;;;;;16.08;4.63;;;;;;;;;;4997068;28;20085;-75
2023/08/13 06:41:05;;;;;;;15.13;5.97;;;;;;;;;;4995828;28;20030;-75
2023/08/13 06:43:31;;;;;;;13.38;5.50;;;;;;;;;;4995354;28;20030;-75
2023/08/13 06:45:56;;;;;;;24.42;5.10;;;;;;;;;;5011918;28;20078;-75
2023/08/13 06:48:21;;;;;;;21.35;5.03;;;;;;;;;;4996072;28;20444;-75
2023/08/13 06:50:48;;;;;;;15.40;4.18;;;;;;;;;;4996775;28;20035;-75
2023/08/13 06:53:13;;;;;;;17.25;5.78;;;;;;;;;;5011520;28;20102;-75
2023/08/13 06:55:39;;;;;;;16.23;4.45;;;;;;;;;;4996645;28;20496;-75
2023/08/13 06:58:04;;;;;;;16.38;4.35;;;;;;;;;;5011688;28;20018;-75
2023/08/13 07:00:29;;;;;;;14.73;4.80;;;;;;;;;;4994875;28;20551;-75
2023/08/13 07:02:55;;;;;;;16.48;5.15;;;;;;;;;;4996371;28;20027;-75
2023/08/13 07:05:20;;;;;;;15.07;3.75;;;;;;;;;;4995328;28;20373;-75
2023/08/13 07:07:45;;;;;;;16.42;4.45;;;;;;;;;;5011424;28;20389;-75
2023/08/13 07:10:11;;;;;;;16.42;4.72;;;;;;;;;;5011045;28;20010;-75
2023/08/13 07:12:36;;;;;;;16.92;5.07;;;;;;;;;;5011136;28;20041;-75
2023/08/13 07:15:03;;;;;;;18.08;4.38;;;;;;;;;;4996095;28;20096;-75
2023/08/13 07:17:29;;;;;;;9.38;4.32;;;;;;;;;;5011100;28;20587;-75
2023/08/13 07:19:54;;;;;;;10.27;3.65;;;;;;;;;;4995848;28;20027;-75
2023/08/13 07:22:21;;;;;;;20.60;4.75;;;;;;;;;;5010598;28;20022;-75
2023/08/13 07:24:47;;;;;;;13.90;3.85;;;;;;;;;;4994494;28;20547;-75
2023/08/13 07:27:13;;;;;;;9.57;3.97;;;;;;;;;;5010967;28;20034;-75
2023/08/13 07:29:38;;;;;;;13.38;4.03;;;;;;;;;;5011014;28;20452;-75
2023/08/13 07:32:04;;;;;;;18.70;3.88;;;;;;;;;;4996222;28;20373;-75
2023/08/13 07:34:29;;;;;;;15.70;4.20;;;;;;;;;;4995292;28;20511;-75
2023/08/13 07:36:55;;;;;;;21.05;5.00;;;;;;;;;;5010362;28;20037;-75
2023/08/13 07:39:21;;;;;;;18.50;5.40;;;;;;;;;;4995584;28;20022;-75
2023/08/13 07:41:50;;;;;;;15.88;5.93;;;;;;;;;;5010768;28;20059;-75
2023/08/13 07:44:18;;;;;;;20.10;5.20;;;;;;;;;;4994495;28;20487;-75
2023/08/13 07:46:43;;;;;;;11.27;3.63;;;;;;;;;;4995201;28;20408;-75
2023/08/13 07:49:09;;;;;;;20.52;5.40;;;;;;;;;;5010581;28;20018;-75
2023/08/13 07:51:34;;;;;;;13.02;3.95;;;;;;;;;;4995402;28;20113;-75
2023/08/13 07:53:59;;;;;;;16.75;5.47;;;;;;;;;;4994217;28;20538;-75
2023/08/13 07:56:25;;;;;;;12.98;4.50;;;;;;;;;;4995405;28;20494;-75
2023/08/13 07:58:50;;;;;;;18.83;4.43;;;;;;;;;;5005912;28;20037;-75
2023/08/13 08:01:16;;;;;;;10.27;4.35;;;;;;;;;;4994644;28;20022;-75
2023/08/13 08:03:41;;;;;;;16.45;4.07;;;;;;;;;;4993784;28;20483;-75
2023/08/13 08:06:06;;;;;;;14.27;4.88;;;;;;;;;;4994867;28;20022;-75
2023/08/13 08:08:32;;;;;;;14.40;4.20;;;;;;;;;;4994990;28;20461;-75
2023/08/13 08:10:57;;;;;;;15.65;4.68;;;;;;;;;;4993045;28;20077;-75
2023/08/13 08:13:22;;;;;;;15.25;3.95;;;;;;;;;;5010100;23;20053;-75
2023/08/13 08:15:48;;;;;;;18.83;4.60;;;;;;;;;;5013578;28;20105;-75
2023/08/13 08:18:13;;;;;;;12.75;4.40;;;;;;;;;;4996940;28;20113;-75
2023/08/13 08:20:38;;;;;;;9.40;3.63;;;;;;;;;;5014421;28;20033;-75
2023/08/13 08:23:04;;;;;;;14.60;4.68;;;;;;;;;;5013168;28;20129;-75
2023/08/13 08:25:29;;;;;;;17.52;4.30;;;;;;;;;;5029458;28;20057;-75
2023/08/13 08:27:54;;;;;;;16.85;5.07;;;;;;;;;;5014431;28;20056;-75
2023/08/13 08:30:21;;;;;;;10.90;4.35;;;;;;;;;;5018061;28;20376;-75
2023/08/13 08:32:46;;;;;;;11.55;4.75;;;;;;;;;;5034113;28;20075;-75
2023/08/13 08:35:12;;;;;;;17.00;3.95;;;;;;;;;;5049568;28;20026;-74
2023/08/13 08:37:37;;;;;;;17.52;3.60;;;;;;;;;;5032536;28;20415;-74
2023/08/13 08:40:04;;;;;;;18.17;4.65;;;;;;;;;;5032628;28;20024;-74
2023/08/13 08:42:30;;;;;;;13.43;3.90;;;;;;;;;;5032561;28;20029;-75
2023/08/13 08:44:57;;;;;;;17.70;4.40;;;;;;;;;;5032825;28;20052;-75
2023/08/13 08:47:23;;;;;;;15.73;4.18;;;;;;;;;;5032732;28;20033;-74
2023/08/13 08:49:48;;;;;;;14.88;3.92;;;;;;;;;;5032465;28;20223;-74
2023/08/13 08:52:15;;;;;;;18.38;4.68;;;;;;;;;;5033597;28;20511;-73
2023/08/13 08:54:40;;;;;;;16.27;5.07;;;;;;;;;;5033356;28;20068;-74
2023/08/13 08:57:06;;;;;;;15.25;4.55;;;;;;;;;;5033466;28;20112;-74
2023/08/13 08:59:31;;;;;;;14.57;3.58;;;;;;;;;;5034064;28;20018;-74
2023/08/13 09:01:58;;;;;;;15.80;4.05;;;;;;;;;;5032577;28;20029;-74
2023/08/13 09:04:25;;;;;;;18.05;3.85;;;;;;;;;;5031983;28;20468;-73
2023/08/13 09:06:59;;;;;;;21.45;4.90;;;;;;;;;;5048419;28;20034;-74
2023/08/13 09:09:25;;;;;;;16.25;4.72;;;;;;;;;;5031270;28;20040;-74
2023/08/13 09:11:52;;;;;;;12.93;4.47;;;;;;;;;;5048622;28;20053;-74
2023/08/13 09:14:20;;;;;;;19.08;4.53;;;;;;;;;;5031235;28;20029;-74
2023/08/13 09:16:50;;;;;;;18.63;4.57;;;;;;;;;;5031932;28;20036;-74
2023/08/13 09:19:16;;;;;;;16.02;5.45;;;;;;;;;;5033302;28;20029;-74
2023/08/13 09:21:49;;;;;;;13.98;4.18;;;;;;;;;;5032719;28;20101;-73
2023/08/13 09:24:15;;;;;;;14.98;3.85;;;;;;;;;;5031983;28;20071;-74
2023/08/13 09:26:40;;;;;;;15.50;4.82;;;;;;;;;;5033102;28;20025;-74
2023/08/13 09:29:07;;;;;;;16.95;5.53;;;;;;;;;;5033772;28;20022;-74
2023/08/13 09:31:33;;;;;;;11.35;4.57;;;;;;;;;;4992320;28;20027;-73
2023/08/13 09:33:59;;;;;;;17.10;4.75;;;;;;;;;;4997334;28;20032;-74
2023/08/13 09:36:24;;;;;;;16.08;4.35;;;;;;;;;;5012972;28;20476;-74
2023/08/13 09:38:49;;;;;;;14.18;4.68;;;;;;;;;;5012862;28;20021;-75
2023/08/13 09:41:15;;;;;;;14.80;4.30;;;;;;;;;;5021714;28;20025;-74
2023/08/13 09:43:43;;;;;;;17.02;3.85;;;;;;;;;;5031432;28;20026;-76
2023/08/13 09:46:09;;;;;;;12.13;4.28;;;;;;;;;;5033004;28;20032;-74
2023/08/13 09:48:34;;;;;;;13.13;4.70;;;;;;;;;;5031949;28;20017;-74
2023/08/13 09:51:01;;;;;;;13.73;3.70;;;;;;;;;;5032910;28;20079;-74
2023/08/13 09:53:27;;;;;;;15.93;4.00;;;;;;;;;;5031894;28;20112;-73
2023/08/13 09:55:59;;;;;;;13.02;4.03;;;;;;;;;;5030762;28;20116;-73
2023/08/13 09:58:25;;;;;;;13.30;3.75;;;;;;;;;;5031781;28;20101;-74
2023/08/13 10:00:50;;;;;;;21.45;5.20;;;;;;;;;;5035505;28;20018;-73
2023/08/13 10:03:18;;;;;;;13.70;4.18;;;;;;;;;;5051740;28;20029;-73
2023/08/13 10:05:44;;;;;;;13.63;4.75;;;;;;;;;;5012970;28;20113;-72
2023/08/13 10:08:10;;;;;;;17.85;4.65;;;;;;;;;;5026477;28;20096;-73
2023/08/13 10:10:37;;;;;;;13.85;4.28;;;;;;;;;;5035047;28;20112;-72
2023/08/13 10:13:03;;;;;;;25.80;4.85;;;;;;;;;;5028940;23;20036;-72
2023/08/13 10:15:28;;;;;;;17.33;4.68;;;;;;;;;;4996731;28;20092;-73
2023/08/13 10:17:54;;;;;;;14.38;4.65;;;;;;;;;;4995231;28;20033;-72
2023/08/13 10:20:19;;;;;;;16.92;5.15;;;;;;;;;;4995915;28;20026;-74
2023/08/13 10:22:46;;;;;;;17.00;4.00;;;;;;;;;;4995784;28;20031;-73
2023/08/13 10:25:25;;;;;;;15.85;3.85;;;;;;;;;;4975457;28;20022;-74
2023/08/13 10:27:52;;;;;;;17.45;5.05;;;;;;;;;;4960357;28;20027;-73
2023/08/13 10:30:18;;;;;;;20.55;4.40;;;;;;;;;;4979226;28;20022;-73
2023/08/13 10:32:59;;;;;;;15.98;3.75;;;;;;;;;;4995663;28;20393;-73
2023/08/13 10:35:25;;;;;;;12.68;4.18;;;;;;;;;;5011739;28;20026;-75
2023/08/13 10:37:56;;;;;;;19.67;4.07;;;;;;;;;;4996537;28;20036;-73
2023/08/13 10:40:21;;;;;;;14.23;4.20;;;;;;;;;;4995211;28;20026;-74
2023/08/13 10:42:54;;;;;;;17.73;4.13;;;;;;;;;;4996995;28;20033;-73
2023/08/13 10:48:03;;;;;;;12.13;3.95;;;;;;;;;;4994947;28;20051;-71
2023/08/13 10:50:33;;;;;;;12.55;5.00;;;;;;;;;;4995609;28;20054;-72
2023/08/13 10:53:13;;;;;;;15.77;4.60;;;;;;;;;;5009635;28;20104;-72
2023/08/13 10:55:47;;;;;;;15.85;4.20;;;;;;;;;;5015548;28;20026;-72
2023/08/13 10:58:24;;;;;;;16.40;6.10;;;;;;;;;;4998723;28;20083;-71
2023/08/13 11:00:50;;;;;;;12.18;4.28;;;;;;;;;;5000303;28;20469;-74
2023/08/13 11:03:31;;;;;;;12.93;4.60;;;;;;;;;;4975629;28;20031;-71
2023/08/13 11:05:57;;;;;;;12.00;3.95;;;;;;;;;;4977096;28;20540;-74
2023/08/13 11:08:23;;;;;;;14.35;3.72;;;;;;;;;;4976421;28;20058;-74
2023/08/13 11:10:50;;;;;;;15.73;4.60;;;;;;;;;;4991022;28;20094;-74
2023/08/13 11:13:16;;;;;;;12.88;3.92;;;;;;;;;;4991624;28;20065;-72
2023/08/13 11:15:57;;;;;;;14.55;4.70;;;;;;;;;;4978986;28;20062;-72
2023/08/13 11:18:22;;;;;;;14.48;4.95;;;;;;;;;;4995943;28;20111;-73
2023/08/13 11:20:49;;;;;;;18.00;4.57;;;;;;;;;;4978550;28;20118;-72
2023/08/13 11:23:16;;;;;;;14.75;4.35;;;;;;;;;;4978710;28;20030;-71
2023/08/13 11:25:41;;;;;;;10.70;4.18;;;;;;;;;;4998102;28;20029;-72
2023/08/13 11:28:07;;;;;;;19.00;4.30;;;;;;;;;;4998707;28;20112;-72
2023/08/13 11:30:32;;;;;;;11.68;4.75;;;;;;;;;;4997509;28;20034;-74
2023/08/13 11:32:58;;;;;;;17.17;4.57;;;;;;;;;;4977772;28;20034;-72
2023/08/13 11:35:24;;;;;;;17.20;6.13;;;;;;;;;;4977821;28;20133;-72
2023/08/13 11:37:49;;;;;;;18.40;4.82;;;;;;;;;;4984405;28;20030;-72
2023/08/13 11:40:15;;;;;;;17.17;4.93;;;;;;;;;;4995128;28;20052;-72
2023/08/13 11:42:55;;;;;;;15.02;4.15;;;;;;;;;;4994867;28;20508;-72
2023/08/13 11:45:23;;;;;;;14.20;4.60;;;;;;;;;;4979622;28;20460;-72
2023/08/13 11:47:48;;;;;;;9.25;3.70;;;;;;;;;;4998283;28;20053;-72
2023/08/13 11:50:18;;;;;;;12.43;3.67;;;;;;;;;;4998173;28;20480;-72
2023/08/13 11:52:44;;;;;;;8.80;3.95;;;;;;;;;;4999209;28;20551;-72
2023/08/13 11:55:09;;;;;;;16.65;5.07;;;;;;;;;;5015422;28;20061;-72
2023/08/13 11:57:34;;;;;;;9.98;3.72;;;;;;;;;;5015179;28;20036;-72
2023/08/13 12:00:02;;;;;;;13.18;3.95;;;;;;;;;;5016159;28;20383;-72
2023/08/13 12:02:28;;;;;;;17.98;4.78;;;;;;;;;;5015808;28;20105;-72
2023/08/13 12:04:54;;;;;;;14.15;4.13;;;;;;;;;;5014757;28;20113;-73
2023/08/13 12:07:19;;;;;;;13.70;4.20;;;;;;;;;;5014115;28;20025;-72
2023/08/13 12:09:44;;;;;;;10.70;3.92;;;;;;;;;;5014402;28;20072;-72
2023/08/13 12:12:09;;;;;;;11.52;3.53;;;;;;;;;;5014952;28;20033;-72
2023/08/13 12:14:41;;;;;;;15.82;4.00;;;;;;;;;;5014361;28;20021;-72
2023/08/13 12:17:07;;;;;;;19.83;4.82;;;;;;;;;;4984988;28;20077;-72
2023/08/13 12:19:32;;;;;;;16.45;3.70;;;;;;;;;;4984876;28;20433;-72
2023/08/13 12:21:57;;;;;;;8.43;3.95;;;;;;;;;;4974593;28;20022;-72
2023/08/13 12:24:23;;;;;;;8.20;3.38;;;;;;;;;;4991491;28;20058;-72
2023/08/13 12:26:48;;;;;;;11.60;3.55;;;;;;;;;;4994503;28;20026;-72
2023/08/13 12:29:13;;;;;;;16.38;3.75;;;;;;;;;;5007583;28;20444;-72
2023/08/13 12:31:38;;;;;;;8.60;3.65;;;;;;;;;;5014116;28;20034;-72
2023/08/13 12:34:04;;;;;;;6.30;3.80;;;;;;;;;;4996170;28;20025;-72
2023/08/13 12:36:29;;;;;;;16.05;4.07;;;;;;;;;;4996282;28;20064;-72
2023/08/13 12:38:54;;;;;;;14.95;3.78;;;;;;;;;;5013781;28;20026;-72
2023/08/13 12:41:20;;;;;;;11.15;3.88;;;;;;;;;;5014363;28;20369;-72
2023/08/13 12:43:47;;;;;;;13.02;3.95;;;;;;;;;;4996090;28;20028;-72
2023/08/13 12:46:13;;;;;;;15.15;4.05;;;;;;;;;;5013553;28;20033;-72
2023/08/13 12:48:40;;;;;;;10.25;4.60;;;;;;;;;;5013817;28;20029;-72
2023/08/13 12:51:05;;;;;;;10.82;3.50;;;;;;;;;;5004285;28;20034;-72
2023/08/13 12:53:31;;;;;;;9.15;3.83;;;;;;;;;;4994256;28;20041;-72
2023/08/13 12:55:58;;;;;;;12.38;5.50;;;;;;;;;;4992307;28;20070;-72
2023/08/13 12:58:23;;;;;;;8.77;3.80;;;;;;;;;;4975190;28;20027;-72
2023/08/13 13:00:49;;;;;;;10.73;4.15;;;;;;;;;;4982544;28;20108;-72
2023/08/13 13:03:14;;;;;;;10.32;3.25;;;;;;;;;;4994207;28;20387;-72
2023/08/13 13:05:39;;;;;;;5.88;3.08;;;;;;;;;;4972503;28;20050;-72
2023/08/13 13:08:05;;;;;;;12.07;4.22;;;;;;;;;;4994060;28;20054;-72
2023/08/13 13:10:30;;;;;;;12.25;3.85;;;;;;;;;;4992713;28;20030;-72
2023/08/13 13:12:56;;;;;;;11.00;3.65;;;;;;;;;;4989948;28;20480;-72
2023/08/13 13:15:21;;;;;;;10.18;3.15;;;;;;;;;;4993679;28;20036;-72
2023/08/13 13:17:46;;;;;;;17.00;3.95;;;;;;;;;;4992884;28;20392;-73
2023/08/13 13:20:12;;;;;;;8.55;3.13;;;;;;;;;;4993529;28;20019;-72
2023/08/13 13:22:39;;;;;;;7.13;3.35;;;;;;;;;;4991579;28;20085;-72
2023/08/13 13:25:05;;;;;;;7.88;3.15;;;;;;;;;;4957381;28;20047;-73
2023/08/13 13:27:30;;;;;;;10.63;3.47;;;;;;;;;;4974081;28;20114;-73
2023/08/13 13:29:55;;;;;;;11.52;3.50;;;;;;;;;;5010911;28;20034;-72
2023/08/13 13:32:20;;;;;;;9.20;3.40;;;;;;;;;;5004392;28;20488;-72
2023/08/13 13:34:46;;;;;;;6.10;2.80;;;;;;;;;;4991605;28;20031;-72
2023/08/13 13:37:11;;;;;;;8.32;3.20;;;;;;;;;;4996827;28;20093;-72
2023/08/13 13:39:36;;;;;;;10.50;3.78;;;;;;;;;;4995849;28;20037;-72
2023/08/13 13:42:02;;;;;;;8.43;3.22;;;;;;;;;;5012525;28;20467;-72
2023/08/13 13:44:27;;;;;;;13.23;3.60;;;;;;;;;;4979882;28;20022;-72
2023/08/13 13:46:52;;;;;;;10.00;3.75;;;;;;;;;;5013207;28;20484;-72
2023/08/13 13:49:18;;;;;;;6.38;2.90;;;;;;;;;;5013003;28;20101;-72
2023/08/13 13:51:43;;;;;;;11.75;2.92;;;;;;;;;;5002984;28;20408;-72
2023/08/13 13:54:08;;;;;;;12.82;3.65;;;;;;;;;;4993539;28;20058;-72
2023/08/13 13:56:34;;;;;;;6.47;3.33;;;;;;;;;;4991468;28;20021;-72
2023/08/13 13:58:59;;;;;;;7.90;2.95;;;;;;;;;;4993573;28;20022;-72
2023/08/13 14:01:24;;;;;;;8.25;3.10;;;;;;;;;;4994015;28;20029;-72
2023/08/13 14:03:49;;;;;;;9.70;2.92;;;;;;;;;;5012995;28;20025;-72
2023/08/13 14:06:15;;;;;;;9.32;3.30;;;;;;;;;;5013145;28;20032;-72
2023/08/13 14:08:40;;;;;;;8.80;3.00;;;;;;;;;;5013576;28;20093;-72
2023/08/13 14:11:05;;;;;;;5.57;3.35;;;;;;;;;;5012322;28;20034;-72
2023/08/13 14:13:31;;;;;;;7.55;3.03;;;;;;;;;;5013145;28;20021;-73
2023/08/13 14:15:59;;;;;;;7.88;3.00;;;;;;;;;;5013465;28;20468;-73
2023/08/13 14:18:25;;;;;;;7.13;3.30;;;;;;;;;;5013210;28;20481;-72
2023/08/13 14:20:50;;;;;;;4.50;2.85;;;;;;;;;;4996106;28;20044;-72
2023/08/13 14:23:16;;;;;;;8.35;3.35;;;;;;;;;;4995130;28;20033;-73
2023/08/13 14:25:41;;;;;;;13.75;4.25;;;;;;;;;;4995638;28;20118;-72
2023/08/13 14:28:08;;;;;;;10.68;3.75;;;;;;;;;;5013386;28;20018;-72